Titusville, FL

5:31 AM EDT on September 15, 2014 (GMT -0400)
Royal Oak | Change Station
CLOSE
Current Station
Personal Weather Station
Location: Titusville, FL
Elevation: 59 ft
Nearby Weather Stations

Elev 59 ft 28.58 °N, 80.83 °W | Updated 9 minutes ago

Partly Cloudy
Partly Cloudy
72.3 °F
Feels Like 72.3 °F
N
0.0
Wind Variable Wind from NE

Today
High -- | Low -- °F
--% Chance of Precip.
Yesterday
High -- | Low -- °F
Precip. -- in
7:08 AM 7:28 PM
Waning Gibbous, 57% visible
Pressure 30.14 in
Visibility 10.0 miles
Clouds Clear
Dew Point 71 °F
Humidity 96%
Rainfall 0.00 in
Snow Depth Not available.
UV 0 out of 12
Pollen 7.60 out of 12
Air Quality Not available.
Flu Activity Not available.
METAR KTTS 150858Z AUTO 00000KT 10SM CLR 22/22 A3013 RMK AO2 SLP206 T02240217 55003

More Conditions Fewer Conditions

Pressure 30.14 in
Visibility 10.0 miles
Clouds Clear
Dew Point 71 °F
Humidity 96%
Rainfall 0.00 in
Snow Depth Not available.
UV 0 out of 12
Pollen 7.60 out of 12
Air Quality Not available.
Flu Activity Not available.
METAR KTTS 150858Z AUTO 00000KT 10SM CLR 22/22 A3013 RMK AO2 SLP206 T02240217 55003

More Conditions Fewer Conditions

10-Day Weather Forecast

Almanac

Astronomy

Sep. 15, 2014 Rise Set
Actual Time 7:08 AM EDT 7:28 PM EDT
Civil Twilight 6:44 AM EDT 7:51 PM EDT
Nautical Twilight 6:17 AM EDT 8:19 PM EDT
Astronomical Twilight 5:49 AM EDT 8:47 PM EDT
Moon No Moon Rise 1:39 PM EDT
Length of Visible Light 13h 07m
Length of Day
12h 19m
Tomorrow will be 1m 42s shorter.
Waning Gibbous, 57% of the Moon is Illuminated
Today
Waning Gibbous
Sep 15
Last Quarter
Sep 24
New
Oct 1
First Quarter
Oct 8
Full

Today's Extremes

State Highs State Lows

Community

WunderPhotos

Upload Photos

1,753,426 photos uploaded!

Nearby

Snow Depth

Station Depth Elevation
No new snow has been reported.

Earthquake Activity

City Distance Mag. Time & Date
No recent earthquake activity has been reported nearby.
Minimum magnitude displayed is 2.5.

Coastal Water Temperatures

Place Temperature
Trident Pier, FL 86.0 °F
Fort Myers, FL 84.9 °F
Lake Worth, FL 84.0 °F

Nearby Weather Stations